CheckWX is a tool to help pilots better visualize weather data.  It is not intended as a substitute for an official pre-flight weather briefing.

05:22:03 UTC

KMGJ METAR
Orange County Airport
Montgomery, New York, USA
Current

19 mins ago

KMGJ 100503Z AUTO 22009KT 10SM OVC009 07/07 A2968 RMK AO2 T00670067
Observed
Dec-10 @ 05:03 UTC
Wind
  • 220° at 9 KTS
Visibility
10 SM
Flight Rules
IFR
Cloud Levels
  • Overcast at 900' AGL
Temperature
C / 45°F
Dewpoint
C / 45°F
Humidity
100%
Altimeter
29.68" Hg
Pressure
1005.12 hPa
Previous

28 mins ago

KMGJ 100454Z AUTO 22009KT 10SM OVC010 07/07 A2968 RMK AO2 SLP054 T00720067 400721061
Observed
Dec-10 @ 04:54 UTC
Wind
  • 220° at 9 KTS
Visibility
10 SM
Flight Rules
MVFR
Cloud Levels
  • Overcast at 1,000' AGL
Temperature
C / 45°F
Dewpoint
C / 45°F
Humidity
100%
Altimeter
29.68" Hg
Pressure
1005.12 hPa
Previous

1 hour ago

KMGJ 100354Z AUTO 22010KT 10SM OVC013 07/07 A2968 RMK AO2 RAB17E38 SLP053 P0000 T00670067
Observed
Dec-10 @ 03:54 UTC
Wind
  • 220° at 10 KTS
Visibility
10 SM
Flight Rules
MVFR
Cloud Levels
  • Overcast at 1,300' AGL
Temperature
C / 45°F
Dewpoint
C / 45°F
Humidity
100%
Altimeter
29.68" Hg
Pressure
1005.12 hPa
Current Rain
0.01"